Time;durP1;ratioP1;P1;durP2;ratioP2;P2;SDS_P1;SDS_P2;PMS_P1;PMS_P2;Temp;Humidity;BMP_temperature;BMP_pressure;BME280_temperature;BME280_humidity;BME280_pressure;Samples;Min_cycle;Max_cycle;Signal;HPM_P1;HPM_P2
2022/07/09 00:01:37;;;;;;;7.28;3.60;;;;;;;15.26;61.57;100250.25;5200055;28;20100;-73
2022/07/09 00:04:28;;;;;;;4.65;3.20;;;;;;;15.37;62.04;100246.59;5185621;28;20053;-74
2022/07/09 00:07:18;;;;;;;8.23;3.50;;;;;;;15.34;62.22;100249.56;5200412;28;20115;-73
2022/07/09 00:10:08;;;;;;;6.85;3.70;;;;;;;15.33;61.89;100245.19;5200641;28;20512;-74
2022/07/09 00:12:58;;;;;;;6.53;3.75;;;;;;;15.28;62.29;100251.81;5184917;28;20511;-73
2022/07/09 00:15:49;;;;;;;6.93;3.33;;;;;;;15.21;62.44;100250.69;5184979;28;20046;-74
2022/07/09 00:18:39;;;;;;;7.00;3.38;;;;;;;15.04;62.57;100241.56;5195057;28;20053;-75
2022/07/09 00:21:30;;;;;;;7.80;3.50;;;;;;;15.15;62.70;100248.59;5188756;28;20072;-72
2022/07/09 00:24:20;;;;;;;8.15;3.47;;;;;;;14.99;63.11;100245.66;5197195;28;20124;-75
2022/07/09 00:27:10;;;;;;;8.43;4.03;;;;;;;14.98;62.59;100235.97;5197284;28;20092;-75
2022/07/09 00:30:01;;;;;;;5.97;4.20;;;;;;;14.75;63.02;100241.56;5187711;28;20069;-74
2022/07/09 00:32:51;;;;;;;8.52;4.05;;;;;;;14.76;63.00;100231.75;5204902;28;20131;-73
2022/07/09 00:35:41;;;;;;;7.00;3.70;;;;;;;14.83;63.18;100234.69;5188562;28;20060;-74
2022/07/09 00:38:31;;;;;;;8.88;3.47;;;;;;;14.85;63.47;100230.91;5196591;28;20060;-74
2022/07/09 00:41:21;;;;;;;5.88;3.50;;;;;;;14.84;62.95;100231.91;5185394;28;20054;-73
2022/07/09 00:44:11;;;;;;;5.75;3.47;;;;;;;14.68;62.98;100231.63;5170850;28;20057;-74
2022/07/09 00:47:06;;;;;;;9.13;3.67;;;;;;;14.52;62.46;100229.47;5196826;28;20052;-74
2022/07/09 00:49:56;;;;;;;;;;;;;;;14.47;62.86;100226.34;5188239;28;20064;-74
2022/07/09 00:52:47;;;;;;;9.65;4.03;;;;;;;14.67;63.78;100222.75;5197346;28;19944;-75
2022/07/09 00:55:38;;;;;;;6.70;3.70;;;;;;;14.57;63.22;100230.75;5199940;28;20447;-73
2022/07/09 00:58:29;;;;;;;9.43;4.10;;;;;;;14.48;64.11;100228.88;5177699;28;20111;-73
2022/07/09 01:01:19;;;;;;;6.45;4.03;;;;;;;14.42;64.01;100220.59;5184264;28;20139;-73
2022/07/09 01:04:11;;;;;;;7.72;4.15;;;;;;;14.56;63.52;100209.53;5184331;28;20588;-74
2022/07/09 01:07:01;;;;;;;6.75;3.83;;;;;;;14.42;63.83;100186.75;5191616;28;20097;-74
2022/07/09 01:09:51;;;;;;;9.13;4.95;;;;;;;14.47;63.32;100213.00;5185823;28;20054;-75
2022/07/09 01:12:42;;;;;;;6.75;3.90;;;;;;;14.33;64.25;100209.75;5202873;28;20558;-75
2022/07/09 01:15:33;;;;;;;7.45;4.20;;;;;;;14.34;63.56;100214.13;5187354;28;20526;-74
2022/07/09 01:18:23;;;;;;;7.13;3.83;;;;;;;14.31;64.86;100210.91;5193826;28;20405;-75
2022/07/09 01:21:14;;;;;;;9.65;4.40;;;;;;;14.38;64.35;100206.69;5184412;28;20073;-75
2022/07/09 01:24:04;;;;;;;9.27;4.63;;;;;;;14.36;64.06;100200.63;5193175;28;20125;-75
2022/07/09 01:26:54;;;;;;;7.78;3.90;;;;;;;14.21;64.70;100202.03;5210670;28;20447;-74
2022/07/09 01:29:49;;;;;;;9.77;4.43;;;;;;;14.39;64.82;100200.38;5187630;28;20053;-73
2022/07/09 01:32:39;;;;;;;;;;;;;;;14.43;63.99;100193.75;5182817;28;20054;-73
2022/07/09 01:35:29;;;;;;;8.50;4.47;;;;;;;14.14;64.43;100183.06;5213753;28;19929;-74
2022/07/09 01:38:19;;;;;;;6.43;4.25;;;;;;;14.00;64.86;100197.63;5194794;28;20057;-74
2022/07/09 01:41:10;;;;;;;12.27;4.03;;;;;;;13.82;65.32;100193.94;5187190;28;20084;-75
2022/07/09 01:44:00;;;;;;;9.63;4.70;;;;;;;14.37;63.77;100197.00;5184927;28;20050;-75
2022/07/09 01:46:51;;;;;;;7.32;4.38;;;;;;;14.24;63.83;100189.25;5196699;28;20053;-75
2022/07/09 01:49:41;;;;;;;8.80;4.05;;;;;;;13.91;64.55;100185.13;5202380;28;20069;-75
2022/07/09 01:52:32;;;;;;;6.20;4.35;;;;;;;13.74;64.84;100169.75;5185602;28;20131;-73
2022/07/09 01:55:22;;;;;;;9.95;4.22;;;;;;;13.86;65.03;100180.19;5203514;28;20545;-74
2022/07/09 01:58:13;;;;;;;8.20;4.50;;;;;;;14.13;64.36;100177.84;5198728;28;20118;-74
2022/07/09 02:01:04;;;;;;;7.10;4.30;;;;;;;14.06;65.19;100180.22;5174990;28;20075;-74
2022/07/09 02:03:54;;;;;;;13.30;4.95;;;;;;;13.85;65.70;100183.00;5189715;28;20057;-74
2022/07/09 02:06:44;;;;;;;10.23;4.55;;;;;;;13.76;66.20;100178.47;5201593;28;20598;-74
2022/07/09 02:09:34;;;;;;;12.98;5.30;;;;;;;13.81;65.85;100176.25;5194185;28;20064;-74
2022/07/09 02:12:24;;;;;;;9.75;4.40;;;;;;;13.68;65.62;100159.66;5179652;28;20056;-73
2022/07/09 02:15:15;;;;;;;8.60;4.93;;;;;;;13.68;66.72;100172.97;5199480;28;20053;-74
2022/07/09 02:18:05;;;;;;;8.90;4.70;;;;;;;13.65;66.87;100174.09;5196631;28;20049;-73
2022/07/09 02:20:56;;;;;;;11.88;4.97;;;;;;;13.70;66.34;100168.34;5187520;28;20052;-74
2022/07/09 02:23:48;;;;;;;8.93;4.75;;;;;;;13.67;66.21;100157.94;5202964;28;20060;-73
2022/07/09 02:26:39;;;;;;;9.55;4.93;;;;;;;13.78;66.28;100161.38;5185746;28;20073;-74
2022/07/09 02:29:29;;;;;;;7.82;4.65;;;;;;;13.58;65.95;100160.47;5179747;28;20064;-75
2022/07/09 02:32:19;;;;;;;6.95;4.60;;;;;;;13.51;65.39;100164.66;5185800;28;20132;-74
2022/07/09 02:35:09;;;;;;;7.68;4.35;;;;;;;13.51;64.01;100167.31;5201952;28;20154;-73
2022/07/09 02:37:59;;;;;;;7.78;4.78;;;;;;;13.49;65.63;100155.94;5187408;28;20046;-74
2022/07/09 02:40:49;;;;;;;8.93;4.57;;;;;;;13.52;66.06;100170.81;5186996;28;20057;-73
2022/07/09 02:43:43;;;;;;;7.30;4.43;;;;;;;13.52;65.82;100179.66;5190883;28;20577;-75
2022/07/09 02:46:32;;;;;;;12.30;5.47;;;;;;;13.42;66.40;100165.44;5198951;28;20061;-74
2022/07/09 02:49:23;;;;;;;9.43;4.47;;;;;;;13.55;66.30;100176.72;5193718;28;20586;-74
2022/07/09 02:52:13;;;;;;;10.93;5.75;;;;;;;13.75;66.68;100174.97;5181986;28;20424;-74
2022/07/09 02:55:03;;;;;;;10.15;5.47;;;;;;;13.82;66.67;100183.25;5177878;28;20046;-74
2022/07/09 02:57:54;;;;;;;11.10;5.57;;;;;;;13.65;66.15;100144.78;5195445;28;20128;-73
2022/07/09 03:00:44;;;;;;;10.77;5.30;;;;;;;13.58;66.31;100168.44;5197747;28;20168;-74
2022/07/09 03:03:37;;;;;;;11.15;5.22;;;;;;;13.62;65.61;100166.38;5172868;28;20692;-74
2022/07/09 03:06:27;;;;;;;9.10;5.20;;;;;;;13.63;66.30;100179.53;5200303;28;20515;-74
2022/07/09 03:09:17;;;;;;;10.80;5.47;;;;;;;13.46;64.39;100172.19;5194246;28;20057;-72
2022/07/09 03:12:07;;;;;;;9.55;5.38;;;;;;;13.37;64.77;100180.97;5180937;28;20064;-75
2022/07/09 03:14:57;;;;;;;6.05;4.60;;;;;;;13.25;65.93;100184.72;5167224;28;20157;-73
2022/07/09 03:17:48;;;;;;;8.43;4.90;;;;;;;13.31;67.09;100184.16;5181190;28;20661;-74
2022/07/09 03:20:39;;;;;;;7.63;4.82;;;;;;;13.51;65.76;100177.97;5184218;28;20175;-74
2022/07/09 03:23:29;;;;;;;13.77;5.18;;;;;;;13.41;65.87;100163.75;5201998;28;20191;-73
2022/07/09 03:26:19;;;;;;;10.43;5.50;;;;;;;13.49;65.72;100192.41;5186555;28;20065;-74
2022/07/09 03:29:09;;;;;;;11.43;5.30;;;;;;;13.37;66.61;100192.47;5177016;28;20415;-73
2022/07/09 03:32:00;;;;;;;9.75;5.53;;;;;;;13.38;66.73;100193.31;5188840;28;20060;-74
2022/07/09 03:34:52;;;;;;;9.02;5.40;;;;;;;13.39;66.52;100192.34;5189423;28;20545;-74
2022/07/09 03:37:42;;;;;;;10.93;5.70;;;;;;;13.21;67.38;100185.88;5201796;28;20176;-73
2022/07/09 03:40:32;;;;;;;7.70;5.05;;;;;;;13.39;66.47;100192.34;5184317;28;20050;-73
2022/07/09 03:43:22;;;;;;;14.43;5.50;;;;;;;13.18;66.51;100189.69;5198195;28;20057;-73
2022/07/09 03:46:12;;;;;;;7.47;4.93;;;;;;;13.23;66.57;100192.78;5193948;28;20482;-73
2022/07/09 03:49:03;;;;;;;10.00;5.30;;;;;;;13.21;66.89;100196.53;5195256;28;20135;-74
2022/07/09 03:51:53;;;;;;;8.65;5.07;;;;;;;13.24;67.80;100186.50;5189667;28;20072;-74
2022/07/09 03:55:04;;;;;;;9.02;5.10;;;;;;;13.34;67.33;100190.09;5184753;28;20046;-74
2022/07/09 03:57:54;;;;;;;9.43;5.72;;;;;;;13.38;67.41;100191.50;5194592;28;20061;-74
2022/07/09 04:00:44;;;;;;;12.30;5.47;;;;;;;13.39;67.33;100179.03;5202572;28;20073;-74
2022/07/09 04:03:34;;;;;;;10.45;5.57;;;;;;;13.33;67.15;100184.88;5185326;28;20129;-74
2022/07/09 04:06:25;;;;;;;10.00;5.32;;;;;;;13.29;67.70;100184.31;5186603;28;20072;-73
2022/07/09 04:09:15;;;;;;;12.13;6.13;;;;;;;13.40;67.39;100178.03;5190940;28;20674;-74
2022/07/09 04:12:06;;;;;;;7.28;5.57;;;;;;;13.56;66.88;100189.06;5191743;28;20427;-73
2022/07/09 04:14:56;;;;;;;10.30;5.55;;;;;;;13.52;66.73;100192.97;5189029;28;20116;-75
2022/07/09 04:17:46;;;;;;;12.00;6.00;;;;;;;13.53;65.94;100189.31;5200695;28;20645;-74
2022/07/09 04:20:36;;;;;;;12.25;6.10;;;;;;;13.45;65.89;100181.16;5203887;28;20523;-75
2022/07/09 04:23:27;;;;;;;11.65;5.15;;;;;;;13.51;66.61;100183.28;5212001;28;20142;-75
2022/07/09 04:26:20;;;;;;;13.52;5.10;;;;;;;13.59;66.63;100198.59;5198328;28;20060;-75
2022/07/09 04:29:13;;;;;;;11.38;4.65;;;;;;;13.71;66.18;100199.34;5193005;28;20195;-74
2022/07/09 04:32:03;;;;;;;11.02;4.88;;;;;;;13.75;66.87;100200.78;5204617;28;20120;-75
2022/07/09 04:34:53;;;;;;;10.00;4.82;;;;;;;13.81;67.10;100201.09;5188820;28;20057;-75
2022/07/09 04:37:43;;;;;;;12.15;5.60;;;;;;;13.65;66.48;100158.09;5195831;28;20112;-75
2022/07/09 04:40:33;;;;;;;10.77;5.78;;;;;;;14.03;65.85;100199.16;5183936;28;20054;-75
2022/07/09 04:43:24;;;;;;;11.55;6.50;;;;;;;14.15;67.87;100199.91;5171409;28;20046;-74
2022/07/09 04:46:16;;;;;;;13.15;6.32;;;;;;;14.31;66.66;100197.56;5197906;28;20089;-74
2022/07/09 04:49:06;;;;;;;11.65;6.80;;;;;;;14.40;66.10;100195.88;5188364;28;20047;-75
2022/07/09 04:51:57;;;;;;;10.70;6.07;;;;;;;14.42;66.96;100194.75;5198084;28;20147;-75
2022/07/09 04:54:47;;;;;;;11.63;5.82;;;;;;;14.57;66.14;100204.06;5199619;28;20524;-75
2022/07/09 04:57:37;;;;;;;10.40;6.03;;;;;;;14.80;66.64;100206.44;5192464;28;20512;-75
2022/07/09 05:00:28;;;;;;;12.23;5.78;;;;;;;14.85;67.01;100203.38;5181303;28;20049;-75
2022/07/09 05:03:18;;;;;;;11.98;6.20;;;;;;;14.84;66.58;100191.84;5175925;28;20143;-75
2022/07/09 05:06:07;;;;;;;9.25;5.88;;;;;;;14.92;65.95;100199.97;5193820;28;20419;-75
2022/07/09 05:08:57;;;;;;;10.88;6.03;;;;;;;15.04;65.62;100201.50;5212295;28;20076;-74
2022/07/09 05:11:47;;;;;;;9.07;6.20;;;;;;;15.15;65.44;100197.81;5202980;28;20054;-74
2022/07/09 05:14:38;;;;;;;8.55;6.10;;;;;;;15.13;66.27;100196.28;5185127;28;20104;-73
2022/07/09 05:17:33;;;;;;;14.70;6.53;;;;;;;15.11;65.30;100185.75;5200281;28;20135;-75
2022/07/09 05:20:24;;;;;;;10.95;6.75;;;;;;;15.18;64.57;100194.88;5199171;28;20520;-74
2022/07/09 05:23:14;;;;;;;10.52;5.82;;;;;;;15.33;64.38;100192.59;5183919;28;20050;-74
2022/07/09 05:26:05;;;;;;;9.45;5.78;;;;;;;15.66;62.56;100185.00;5196710;28;20523;-73
2022/07/09 05:28:55;;;;;;;14.13;5.90;;;;;;;15.59;63.31;100182.06;5188025;28;20114;-73
2022/07/09 05:31:45;;;;;;;9.27;5.80;;;;;;;15.73;63.45;100184.31;5197320;28;20065;-73
2022/07/09 05:34:36;;;;;;;10.35;6.03;;;;;;;15.74;62.54;100175.28;5185742;28;20065;-74
2022/07/09 05:37:25;;;;;;;11.02;5.55;;;;;;;15.74;62.89;100180.63;5191822;28;20072;-73
2022/07/09 05:40:16;;;;;;;10.85;5.25;;;;;;;15.93;61.96;100194.91;5194701;28;20061;-73
2022/07/09 05:43:06;;;;;;;14.15;6.18;;;;;;;16.15;61.34;100199.00;5185955;28;20061;-73
2022/07/09 05:45:56;;;;;;;10.68;5.55;;;;;;;16.30;60.99;100202.03;5183276;28;20065;-74
2022/07/09 05:48:46;;;;;;;15.30;6.40;;;;;;;16.42;60.93;100200.78;5198833;28;20041;-72
2022/07/09 05:51:37;;;;;;;9.85;5.40;;;;;;;16.34;61.12;100198.88;5181970;28;20444;-74
2022/07/09 05:54:27;;;;;;;13.63;6.47;;;;;;;16.80;60.62;100191.66;5180397;28;20562;-73
2022/07/09 05:57:18;;;;;;;12.45;6.07;;;;;;;16.73;60.99;100193.22;5202363;28;20052;-73
2022/07/09 06:00:09;;;;;;;9.18;5.18;;;;;;;16.88;60.11;100180.97;5186337;28;20111;-73
2022/07/09 06:02:59;;;;;;;9.68;5.22;;;;;;;17.03;60.24;100196.50;5175917;28;20179;-73
2022/07/09 06:05:49;;;;;;;7.40;5.18;;;;;;;17.02;60.51;100181.41;5181223;28;20054;-73
2022/07/09 06:08:40;;;;;;;8.25;5.07;;;;;;;17.15;60.03;100187.19;5184287;28;20057;-73
2022/07/09 06:15:38;;;;;;;10.10;4.63;;;;;;;17.60;57.35;100132.50;5212610;28;20079;-82
2022/07/09 06:19:26;;;;;;;6.63;4.65;;;;;;;18.00;57.76;100188.19;5199351;28;20041;-83
2022/07/09 06:22:42;;;;;;;8.23;5.38;;;;;;;17.86;57.28;100124.41;5205240;28;20076;-83
2022/07/09 06:26:06;;;;;;;10.18;5.72;;;;;;;18.35;55.04;100126.38;5191135;28;20052;-88
2022/07/09 06:29:00;;;;;;;9.10;4.78;;;;;;;18.47;56.76;100138.44;5201590;28;20052;-86
2022/07/09 06:32:00;;;;;;;7.95;4.28;;;;;;;18.31;54.83;100077.53;5183817;28;20069;-86
2022/07/09 06:35:18;;;;;;;9.95;4.20;;;;;;;19.18;54.75;100161.97;5201221;28;20045;-90
2022/07/09 06:42:41;;;;;;;11.70;4.78;;;;;;;18.84;53.39;100057.38;5197652;28;20535;-85
2022/07/09 06:46:33;;;;;;;8.35;3.97;;;;;;;19.92;51.97;100172.50;5188181;28;20060;-85
2022/07/09 06:50:12;;;;;;;8.57;3.83;;;;;;;19.15;52.23;100060.13;5191403;28;20488;-85
2022/07/09 06:53:58;;;;;;;12.57;3.88;;;;;;;20.01;52.12;100167.94;5195534;28;20095;-84
2022/07/09 06:57:01;;;;;;;7.57;3.78;;;;;;;19.60;50.95;100069.38;5199800;28;20045;-85
2022/07/09 06:59:58;;;;;;;9.27;4.00;;;;;;;19.55;51.60;100050.22;5183925;28;20674;-84
2022/07/09 07:02:48;;;;;;;10.70;3.20;;;;;;;21.19;49.90;100172.94;5214859;28;20060;-84
2022/07/09 07:05:39;;;;;;;8.35;3.70;;;;;;;22.20;47.69;100172.28;5207497;28;20057;-84
2022/07/09 07:08:29;;;;;;;8.75;3.92;;;;;;;22.63;45.47;100114.72;5202658;28;20079;-86
2022/07/09 07:11:22;;;;;;;8.43;3.30;;;;;;;23.92;42.91;100166.59;5184460;28;20618;-85
2022/07/09 07:14:14;;;;;;;6.35;3.20;;;;;;;24.40;43.04;100147.53;5199906;28;20049;-86
2022/07/09 07:17:05;;;;;;;7.43;3.00;;;;;;;25.51;40.71;100149.66;5201237;28;20045;-84
2022/07/09 07:19:57;;;;;;;9.02;2.97;;;;;;;25.66;38.15;100158.41;5207967;28;20065;-82
2022/07/09 07:22:50;;;;;;;9.70;3.10;;;;;;;25.45;40.37;100155.94;5204353;28;20059;-84
2022/07/09 07:25:42;;;;;;;5.97;2.88;;;;;;;24.75;41.79;100136.56;5205197;28;20061;-83
2022/07/09 07:28:33;;;;;;;6.65;3.35;;;;;;;25.28;40.32;100118.38;5222047;28;20089;-87
2022/07/09 07:31:27;;;;;;;8.05;2.95;;;;;;;26.29;38.65;100152.28;5217358;28;20064;-81
2022/07/09 07:34:19;;;;;;;9.90;3.05;;;;;;;26.19;39.06;100147.31;5218707;28;20059;-81
2022/07/09 07:37:12;;;;;;;8.68;2.75;;;;;;;26.42;36.27;100148.63;5209320;28;20068;-81
2022/07/09 07:40:05;;;;;;;10.15;3.08;;;;;;;26.32;36.39;100161.88;5219773;28;20421;-83
2022/07/09 07:43:01;;;;;;;9.20;3.17;;;;;;;26.69;39.32;100169.19;5220383;28;20064;-81
2022/07/09 07:45:52;;;;;;;10.40;2.97;;;;;;;26.32;38.47;100145.56;5228002;28;20057;-81
2022/07/09 07:48:43;;;;;;;9.18;2.80;;;;;;;26.30;39.45;100147.69;5217690;28;20100;-85
2022/07/09 07:51:35;;;;;;;6.55;2.50;;;;;;;26.47;38.69;100155.09;5236733;28;20044;-84
2022/07/09 07:54:26;;;;;;;6.63;2.50;;;;;;;27.08;36.42;100123.63;5225012;28;20036;-86
2022/07/09 07:57:16;;;;;;;8.25;2.90;;;;;;;25.58;39.04;100130.63;5226336;28;20025;-85
2022/07/09 08:00:08;;;;;;;8.07;2.35;;;;;;;26.93;37.96;100143.03;5216114;28;20052;-82
2022/07/09 08:03:01;;;;;;;6.85;2.63;;;;;;;26.02;39.25;100114.34;5233062;28;20060;-86
2022/07/09 08:05:53;;;;;;;8.18;2.40;;;;;;;27.26;38.21;100135.66;5214302;28;20118;-88
2022/07/09 08:08:45;;;;;;;5.72;2.70;;;;;;;27.99;37.81;100132.91;5203775;28;20076;-86
2022/07/09 08:11:36;;;;;;;5.40;2.28;;;;;;;27.72;35.03;100118.78;5189679;28;20056;-88
2022/07/09 08:14:26;;;;;;;6.20;2.30;;;;;;;28.16;36.14;100108.56;5199164;28;20136;-85
2022/07/09 08:17:17;;;;;;;5.65;2.42;;;;;;;29.38;34.20;100148.16;5204578;28;20104;-85
2022/07/09 08:20:14;;;;;;;6.43;2.00;;;;;;;28.97;32.36;100137.13;5218382;28;20421;-85
2022/07/09 08:23:11;;;;;;;11.15;2.40;;;;;;;29.12;32.36;100098.44;5187384;28;20050;-87
2022/07/09 08:26:02;;;;;;;5.25;1.80;;;;;;;29.01;32.17;100094.63;5208162;28;20464;-87
2022/07/09 08:28:53;;;;;;;6.97;2.53;;;;;;;29.27;32.48;100097.91;5194692;28;20155;-86
2022/07/09 08:31:44;;;;;;;7.90;2.25;;;;;;;29.02;33.34;100117.31;5184853;28;20053;-86
2022/07/09 08:34:35;;;;;;;5.13;1.98;;;;;;;30.37;31.46;100124.25;5205772;28;20154;-87
2022/07/09 08:37:26;;;;;;;3.42;1.45;;;;;;;30.35;31.42;100090.81;5202453;28;20060;-87
2022/07/09 08:40:16;;;;;;;4.80;1.55;;;;;;;30.72;30.61;100116.88;5210826;28;20556;-87
2022/07/09 08:43:09;;;;;;;3.97;1.70;;;;;;;30.16;31.34;100123.00;5177256;28;20053;-87
2022/07/09 08:46:00;;;;;;;5.30;1.88;;;;;;;30.22;30.37;100091.13;5204033;28;20065;-87
2022/07/09 08:48:52;;;;;;;3.13;1.50;;;;;;;30.51;29.92;100077.41;5201333;28;20041;-87
2022/07/09 08:51:44;;;;;;;4.13;1.33;;;;;;;30.45;31.71;100064.72;5201314;28;20061;-87
2022/07/09 08:54:39;;;;;;;3.28;1.42;;;;;;;30.09;31.49;100066.78;5203084;28;20053;-87
2022/07/09 08:57:30;;;;;;;2.25;1.25;;;;;;;30.93;30.65;100057.78;5199961;28;20496;-87
2022/07/09 09:00:22;;;;;;;4.18;1.40;;;;;;;30.96;31.68;100092.91;5202222;28;20518;-87
2022/07/09 09:03:13;;;;;;;3.65;1.23;;;;;;;31.37;30.77;100058.72;5202924;28;20152;-87
2022/07/09 09:06:05;;;;;;;4.80;1.23;;;;;;;31.54;29.67;100059.47;5203263;28;20052;-88
2022/07/09 09:08:56;;;;;;;2.03;1.20;;;;;;;31.82;30.42;100066.66;5172927;28;20049;-87
2022/07/09 09:11:49;;;;;;;6.43;1.38;;;;;;;31.54;30.02;100066.88;5184555;28;20061;-87
2022/07/09 09:14:48;;;;;;;6.78;1.35;;;;;;;30.31;30.71;100021.25;5188492;28;20187;-88
2022/07/09 09:17:44;;;;;;;3.05;1.33;;;;;;;30.87;30.07;100021.31;5202998;28;20068;-87
2022/07/09 09:20:34;;;;;;;6.90;2.17;;;;;;;31.92;29.09;100033.06;5190705;28;20054;-86
2022/07/09 09:23:25;;;;;;;2.80;1.33;;;;;;;31.45;30.98;100016.31;5191796;28;20053;-87
2022/07/09 09:26:21;;;;;;;4.13;1.20;;;;;;;31.49;29.23;100056.69;5191730;28;20061;-87
2022/07/09 09:29:11;;;;;;;3.35;1.45;;;;;;;31.33;30.21;100052.09;5199261;28;20499;-87
2022/07/09 09:32:11;;;;;;;5.05;1.42;;;;;;;30.64;30.66;100033.28;5193460;28;20060;-87
2022/07/09 09:35:03;;;;;;;2.92;1.38;;;;;;;31.78;30.43;100051.78;5196391;28;20045;-87
2022/07/09 09:37:55;;;;;;;2.67;0.98;;;;;;;32.03;28.90;100021.09;5193684;28;20050;-88
2022/07/09 09:40:47;;;;;;;2.65;0.98;;;;;;;31.59;30.51;100020.34;5205571;28;20096;-87
2022/07/09 09:43:40;;;;;;;11.13;1.40;;;;;;;32.51;30.09;100015.72;5201497;28;20507;-87
2022/07/09 09:46:34;;;;;;;5.05;1.35;;;;;;;32.63;28.92;100038.34;5204074;28;20054;-86
2022/07/09 09:49:25;;;;;;;3.88;1.23;;;;;;;32.23;27.99;100025.91;5204862;28;20061;-87
2022/07/09 09:52:18;;;;;;;5.07;0.88;;;;;;;31.16;30.91;100046.66;5200803;28;20042;-87
2022/07/09 09:55:10;;;;;;;1.50;0.77;;;;;;;30.37;30.56;100019.44;5197582;28;20045;-87
2022/07/09 09:58:00;;;;;;;3.50;1.05;;;;;;;31.11;31.58;100010.94;5188208;28;20049;-88
2022/07/09 10:00:51;;;;;;;5.10;0.80;;;;;;;29.66;28.14;99987.00;5204486;28;20057;-87
2022/07/09 10:03:42;;;;;;;1.48;0.70;;;;;;;30.33;28.09;99990.91;5202650;28;20053;-87
2022/07/09 10:06:36;;;;;;;1.58;0.80;;;;;;;30.25;30.97;100026.91;5202375;28;20057;-87
2022/07/09 10:09:26;;;;;;;5.22;0.70;;;;;;;29.74;30.85;100015.84;5191595;28;20054;-87
2022/07/09 10:12:30;;;;;;;2.33;0.85;;;;;;;30.37;30.68;99984.69;5194535;28;20084;-88
2022/07/09 10:15:26;;;;;;;1.10;0.90;;;;;;;30.70;29.74;99971.22;5185185;28;20184;-87
2022/07/09 10:18:18;;;;;;;2.97;0.63;;;;;;;30.22;29.31;100024.66;5216605;28;20049;-88
2022/07/09 10:21:09;;;;;;;8.40;1.15;;;;;;;29.66;31.56;99999.84;5181844;28;20420;-87
2022/07/09 10:23:59;;;;;;;1.02;0.57;;;;;;;29.96;30.89;100029.63;5186842;28;20488;-87
2022/07/09 10:26:50;;;;;;;2.60;0.90;;;;;;;30.18;30.98;99991.47;5194561;28;20085;-88
2022/07/09 10:30:21;;;;;;;1.42;0.60;;;;;;;30.85;29.77;100013.34;5210691;28;20072;-88
2022/07/09 10:33:33;;;;;;;3.08;0.80;;;;;;;31.00;30.95;99929.75;5195732;28;20103;-88
2022/07/09 10:36:25;;;;;;;2.08;0.90;;;;;;;29.64;28.85;99900.88;5201990;28;20096;-87
2022/07/09 10:39:18;;;;;;;2.05;0.90;;;;;;;31.41;28.71;99999.56;5199009;28;20053;-87
2022/07/09 10:42:20;;;;;;;2.70;0.98;;;;;;;29.93;28.82;99924.34;5182866;28;20054;-87
2022/07/09 10:45:25;;;;;;;5.88;0.93;;;;;;;31.74;27.82;100014.19;5195878;28;20052;-88
2022/07/09 10:48:16;;;;;;;1.50;0.73;;;;;;;31.73;28.34;99994.16;5185574;28;20053;-87
2022/07/09 10:51:07;;;;;;;1.25;0.70;;;;;;;31.07;28.00;99958.59;5204373;28;20049;-87
2022/07/09 10:53:57;;;;;;;1.70;0.80;;;;;;;30.53;29.94;99971.22;5174317;28;20054;-88
2022/07/09 10:56:47;;;;;;;3.35;1.10;;;;;;;30.05;30.05;100005.47;5205695;28;20211;-88
2022/07/09 10:59:38;;;;;;;3.90;1.00;;;;;;;29.41;30.90;100011.91;5194441;28;20112;-86
2022/07/09 11:02:28;;;;;;;2.85;0.93;;;;;;;28.53;31.97;99978.31;5209290;28;20060;-87
2022/07/09 11:05:18;;;;;;;1.85;0.90;;;;;;;28.47;33.29;99972.97;5198732;28;20131;-87
2022/07/09 11:08:09;;;;;;;2.65;0.90;;;;;;;28.20;32.83;100010.75;5205732;28;20049;-87
2022/07/09 11:10:59;;;;;;;5.03;1.00;;;;;;;27.63;34.51;99997.53;5185213;28;20423;-88
2022/07/09 11:13:50;;;;;;;2.45;0.90;;;;;;;27.01;35.94;99983.22;5200664;28;20509;-87
2022/07/09 11:16:41;;;;;;;2.33;1.05;;;;;;;27.08;36.33;99987.50;5195803;28;20055;-87
2022/07/09 11:19:39;;;;;;;3.63;1.10;;;;;;;26.51;35.99;99972.44;5191858;28;20103;-87
2022/07/09 11:22:30;;;;;;;3.03;1.00;;;;;;;27.00;36.13;100012.31;5189916;28;20061;-87
2022/07/09 11:25:25;;;;;;;3.22;0.98;;;;;;;27.36;36.75;100005.25;5203455;28;20056;-87
2022/07/09 11:28:21;;;;;;;4.15;1.25;;;;;;;27.30;36.48;100006.97;5219800;28;20092;-87
2022/07/09 11:31:11;;;;;;;2.67;1.42;;;;;;;27.86;36.29;99994.91;5207354;28;20054;-86
2022/07/09 11:34:11;;;;;;;2.95;1.00;;;;;;;28.31;35.32;99991.69;5219290;28;20064;-86
2022/07/09 11:37:02;;;;;;;2.70;1.00;;;;;;;27.58;37.20;99971.00;5199742;28;20747;-87
2022/07/09 11:39:55;;;;;;;6.50;0.90;;;;;;;28.07;32.93;99940.91;5184358;28;20542;-88
2022/07/09 11:42:46;;;;;;;;;;;;;;;29.08;34.60;99977.09;5189074;28;20064;-86
2022/07/09 11:45:36;;;;;;;3.72;0.80;;;;;;;28.94;33.07;99946.47;5203598;28;20365;-83
2022/07/09 11:48:26;;;;;;;1.98;0.80;;;;;;;29.10;32.84;99944.91;5193995;28;20049;-83
2022/07/09 11:51:31;;;;;;;1.60;0.60;;;;;;;29.97;31.12;99949.28;5194248;28;20491;-87
2022/07/09 11:54:27;;;;;;;2.70;0.70;;;;;;;30.02;31.56;99934.84;5188318;28;20497;-88
2022/07/09 11:57:24;;;;;;;1.67;0.80;;;;;;;29.13;32.32;99959.97;5200673;28;20127;-87
2022/07/09 12:00:23;;;;;;;2.78;0.98;;;;;;;29.12;33.56;99920.91;5193178;28;20590;-87
2022/07/09 12:03:26;;;;;;;1.42;0.70;;;;;;;29.12;34.09;99934.56;5186033;28;20050;-87
2022/07/09 12:06:17;;;;;;;0.90;0.50;;;;;;;28.69;31.12;99910.44;5184233;28;20137;-88
2022/07/09 12:09:07;;;;;;;1.05;0.60;;;;;;;28.69;32.92;99944.03;5209536;28;20104;-88
2022/07/09 12:11:58;;;;;;;1.88;0.70;;;;;;;27.69;33.94;99949.47;5182363;28;20053;-87
2022/07/09 12:14:49;;;;;;;0.70;0.60;;;;;;;27.32;34.25;99923.19;5217117;28;20053;-87
2022/07/09 12:17:39;;;;;;;1.50;0.68;;;;;;;27.51;34.48;99940.28;5183927;28;20057;-88
2022/07/09 12:20:31;;;;;;;0.88;0.60;;;;;;;27.32;36.01;99938.69;5190753;28;20053;-88
2022/07/09 12:23:23;;;;;;;2.97;0.90;;;;;;;27.26;36.00;99937.69;5184604;28;20064;-87
2022/07/09 12:26:14;;;;;;;1.58;0.82;;;;;;;28.21;35.28;99931.47;5198783;28;20562;-88
2022/07/09 12:29:05;;;;;;;2.30;1.10;;;;;;;28.15;34.74;99924.22;5205970;28;20284;-88
2022/07/09 12:31:55;;;;;;;4.63;0.85;;;;;;;27.53;34.58;99878.22;5205170;28;20059;-87
2022/07/09 12:34:46;;;;;;;5.05;0.90;;;;;;;28.28;33.87;99898.63;5182855;28;20046;-87
2022/07/09 12:37:37;;;;;;;3.42;1.00;;;;;;;27.63;34.10;99889.38;5196093;28;20053;-88
2022/07/09 12:40:27;;;;;;;3.20;0.90;;;;;;;27.40;34.31;99868.38;5201827;28;20053;-87
2022/07/09 12:43:18;;;;;;;2.78;0.75;;;;;;;27.69;35.45;99876.72;5204210;28;20424;-87
2022/07/09 12:46:08;;;;;;;3.03;0.90;;;;;;;28.24;33.74;99873.69;5199064;28;20056;-88
2022/07/09 12:49:00;;;;;;;2.13;0.77;;;;;;;28.33;33.63;99896.00;5183733;28;20523;-87
2022/07/09 12:51:50;;;;;;;1.23;0.65;;;;;;;27.62;32.73;99830.53;5183160;28;20112;-86
2022/07/09 12:54:41;;;;;;;0.95;0.65;;;;;;;28.19;30.39;99859.97;5204212;28;20059;-87
2022/07/09 12:57:31;;;;;;;1.90;0.85;;;;;;;28.44;31.63;99884.25;5197018;28;20447;-87
2022/07/09 13:00:22;;;;;;;4.53;1.00;;;;;;;29.13;31.18;99869.84;5183369;28;20072;-86
2022/07/09 13:03:12;;;;;;;1.38;0.70;;;;;;;29.14;30.70;99864.16;5214251;28;20057;-88
2022/07/09 13:06:02;;;;;;;2.28;0.73;;;;;;;28.20;32.05;99847.16;5204022;28;20107;-87
2022/07/09 13:08:53;;;;;;;3.40;0.93;;;;;;;27.52;33.19;99865.69;5183667;28;20400;-87
2022/07/09 13:11:44;;;;;;;2.70;0.80;;;;;;;26.66;34.62;99862.22;5190142;28;20050;-87
2022/07/09 13:14:34;;;;;;;3.17;0.90;;;;;;;27.41;32.96;99841.97;5185665;28;20053;-87
2022/07/09 13:17:24;;;;;;;1.77;0.80;;;;;;;27.83;33.44;99850.94;5185978;28;20056;-87
2022/07/09 13:20:23;;;;;;;5.43;0.82;;;;;;;27.53;33.50;99837.38;5205563;28;20068;-86
2022/07/09 13:23:13;;;;;;;1.83;0.88;;;;;;;27.80;33.11;99806.97;5199718;28;20045;-87
2022/07/09 13:26:06;;;;;;;1.38;1.20;;;;;;;28.25;33.64;99860.91;5195788;28;20052;-86
2022/07/09 13:28:58;;;;;;;1.65;0.98;;;;;;;27.92;33.60;99854.16;5210293;28;20080;-85
2022/07/09 13:31:49;;;;;;;2.13;1.00;;;;;;;28.15;33.45;99822.50;5197616;28;20056;-88
2022/07/09 13:34:39;;;;;;;5.32;0.90;;;;;;;28.06;34.44;99839.22;5190337;28;20088;-90